sensor_id;sensor_type;location;lat;lon;timestamp;noise_LAeq;noise_LA_min;noise_LA_max;noise_LA01;noise_LA95
46393;Laerm;32099;53.588;10.176;2024-01-27T00:00:08;51.46;48.09;58.04;;
46393;Laerm;32099;53.588;10.176;2024-01-27T00:02:34;51.36;46.78;64.88;;
46393;Laerm;32099;53.588;10.176;2024-01-27T00:04:59;48.78;46.44;52.49;;
46393;Laerm;32099;53.588;10.176;2024-01-27T00:07:28;48.48;45.72;58.45;;
46393;Laerm;32099;53.588;10.176;2024-01-27T00:09:54;51.08;46.09;57.59;;
46393;Laerm;32099;53.588;10.176;2024-01-27T00:12:20;49.67;46.89;56.95;;
46393;Laerm;32099;53.588;10.176;2024-01-27T00:14:45;56.33;46.68;74.06;;
46393;Laerm;32099;53.588;10.176;2024-01-27T00:17:11;52.08;46.68;57.28;;
46393;Laerm;32099;53.588;10.176;2024-01-27T00:19:37;52.61;47.01;61.29;;
46393;Laerm;32099;53.588;10.176;2024-01-27T00:22:04;50.75;46.75;57.72;;
46393;Laerm;32099;53.588;10.176;2024-01-27T00:24:32;48.72;46.48;55.01;;
46393;Laerm;32099;53.588;10.176;2024-01-27T00:26:59;50.47;46.43;58.48;;
46393;Laerm;32099;53.588;10.176;2024-01-27T00:29:25;49.27;46.30;57.87;;
46393;Laerm;32099;53.588;10.176;2024-01-27T00:31:51;48.33;46.43;54.50;;
46393;Laerm;32099;53.588;10.176;2024-01-27T00:34:17;48.02;45.18;56.20;;
46393;Laerm;32099;53.588;10.176;2024-01-27T00:36:43;49.47;46.72;54.27;;
46393;Laerm;32099;53.588;10.176;2024-01-27T00:39:09;47.98;45.87;56.45;;
46393;Laerm;32099;53.588;10.176;2024-01-27T00:41:38;47.85;44.98;61.09;;
46393;Laerm;32099;53.588;10.176;2024-01-27T00:44:04;50.29;46.96;57.12;;
46393;Laerm;32099;53.588;10.176;2024-01-27T00:46:30;49.70;45.95;61.94;;
46393;Laerm;32099;53.588;10.176;2024-01-27T00:48:56;49.74;46.03;60.28;;
46393;Laerm;32099;53.588;10.176;2024-01-27T00:51:22;49.55;45.04;63.23;;
46393;Laerm;32099;53.588;10.176;2024-01-27T00:53:48;46.64;44.70;53.05;;
46393;Laerm;32099;53.588;10.176;2024-01-27T00:56:13;45.84;44.17;52.73;;
46393;Laerm;32099;53.588;10.176;2024-01-27T00:58:42;47.62;44.87;57.53;;
46393;Laerm;32099;53.588;10.176;2024-01-27T01:01:08;49.24;45.08;58.21;;
46393;Laerm;32099;53.588;10.176;2024-01-27T01:03:34;49.42;46.40;53.71;;
46393;Laerm;32099;53.588;10.176;2024-01-27T01:05:59;51.85;46.14;63.08;;
46393;Laerm;32099;53.588;10.176;2024-01-27T01:08:25;46.50;44.99;49.23;;
46393;Laerm;32099;53.588;10.176;2024-01-27T01:10:51;46.08;44.53;56.22;;
46393;Laerm;32099;53.588;10.176;2024-01-27T01:13:16;47.61;45.13;51.68;;
46393;Laerm;32099;53.588;10.176;2024-01-27T01:15:45;47.26;45.00;50.35;;
46393;Laerm;32099;53.588;10.176;2024-01-27T01:18:10;46.98;44.61;56.41;;
46393;Laerm;32099;53.588;10.176;2024-01-27T01:20:36;45.86;44.31;49.78;;
46393;Laerm;32099;53.588;10.176;2024-01-27T01:23:02;45.63;43.87;49.80;;
46393;Laerm;32099;53.588;10.176;2024-01-27T01:25:27;47.16;44.41;53.31;;
46393;Laerm;32099;53.588;10.176;2024-01-27T01:27:53;46.31;44.56;54.96;;
46393;Laerm;32099;53.588;10.176;2024-01-27T01:30:19;47.37;44.16;69.55;;
46393;Laerm;32099;53.588;10.176;2024-01-27T01:32:48;46.80;44.15;55.56;;
46393;Laerm;32099;53.588;10.176;2024-01-27T01:35:14;45.34;43.71;49.61;;
46393;Laerm;32099;53.588;10.176;2024-01-27T01:37:40;44.58;43.71;47.05;;
46393;Laerm;32099;53.588;10.176;2024-01-27T01:40:07;45.82;43.63;54.60;;
46393;Laerm;32099;53.588;10.176;2024-01-27T01:42:33;46.34;44.28;59.04;;
46393;Laerm;32099;53.588;10.176;2024-01-27T01:44:58;48.33;44.58;60.86;;
46393;Laerm;32099;53.588;10.176;2024-01-27T01:47:25;45.55;43.91;47.71;;
46393;Laerm;32099;53.588;10.176;2024-01-27T01:49:53;49.34;45.11;61.08;;
46393;Laerm;32099;53.588;10.176;2024-01-27T01:52:20;45.24;43.87;47.61;;
46393;Laerm;32099;53.588;10.176;2024-01-27T01:54:47;48.45;44.09;60.14;;
46393;Laerm;32099;53.588;10.176;2024-01-27T01:57:13;45.68;43.88;56.73;;
46393;Laerm;32099;53.588;10.176;2024-01-27T01:59:39;49.27;45.75;59.41;;
46393;Laerm;32099;53.588;10.176;2024-01-27T02:02:05;48.06;44.97;56.54;;
46393;Laerm;32099;53.588;10.176;2024-01-27T02:04:39;48.71;45.17;55.77;;
46393;Laerm;32099;53.588;10.176;2024-01-27T02:07:07;47.88;44.57;56.38;;
46393;Laerm;32099;53.588;10.176;2024-01-27T02:09:33;45.51;43.83;48.29;;
46393;Laerm;32099;53.588;10.176;2024-01-27T02:11:59;47.85;44.44;56.45;;
46393;Laerm;32099;53.588;10.176;2024-01-27T02:14:24;45.07;43.79;47.51;;
46393;Laerm;32099;53.588;10.176;2024-01-27T02:16:51;45.33;43.66;56.22;;
46393;Laerm;32099;53.588;10.176;2024-01-27T02:19:16;45.37;43.50;49.54;;
46393;Laerm;32099;53.588;10.176;2024-01-27T02:21:42;45.52;43.72;50.03;;
46393;Laerm;32099;53.588;10.176;2024-01-27T02:24:10;44.86;44.02;46.47;;
46393;Laerm;32099;53.588;10.176;2024-01-27T02:26:36;47.19;43.74;59.10;;
46393;Laerm;32099;53.588;10.176;2024-01-27T02:29:02;45.09;43.85;47.64;;
46393;Laerm;32099;53.588;10.176;2024-01-27T02:31:28;47.74;44.10;57.66;;
46393;Laerm;32099;53.588;10.176;2024-01-27T02:33:54;44.71;43.58;48.57;;
46393;Laerm;32099;53.588;10.176;2024-01-27T02:36:20;45.08;43.53;50.36;;
46393;Laerm;32099;53.588;10.176;2024-01-27T02:38:46;48.67;44.34;53.87;;
46393;Laerm;32099;53.588;10.176;2024-01-27T02:41:14;49.44;44.94;56.97;;
46393;Laerm;32099;53.588;10.176;2024-01-27T02:43:40;45.91;44.38;49.09;;
46393;Laerm;32099;53.588;10.176;2024-01-27T02:46:08;47.28;44.84;57.16;;
46393;Laerm;32099;53.588;10.176;2024-01-27T02:48:34;46.85;44.17;55.49;;
46393;Laerm;32099;53.588;10.176;2024-01-27T02:51:02;46.08;44.29;52.02;;
46393;Laerm;32099;53.588;10.176;2024-01-27T02:53:27;45.76;44.21;48.05;;
46393;Laerm;32099;53.588;10.176;2024-01-27T02:55:53;47.75;44.41;53.79;;
46393;Laerm;32099;53.588;10.176;2024-01-27T02:58:21;48.70;44.30;58.87;;
46393;Laerm;32099;53.588;10.176;2024-01-27T03:00:47;48.91;44.93;58.96;;
46393;Laerm;32099;53.588;10.176;2024-01-27T03:03:13;48.89;45.15;58.64;;
46393;Laerm;32099;53.588;10.176;2024-01-27T03:05:39;48.59;45.26;53.99;;
46393;Laerm;32099;53.588;10.176;2024-01-27T03:08:05;48.28;44.62;57.96;;
46393;Laerm;32099;53.588;10.176;2024-01-27T03:10:31;47.58;45.82;53.73;;
46393;Laerm;32099;53.588;10.176;2024-01-27T03:12:57;47.78;45.33;55.12;;
46393;Laerm;32099;53.588;10.176;2024-01-27T03:15:26;47.14;44.81;56.38;;
46393;Laerm;32099;53.588;10.176;2024-01-27T03:17:52;50.32;44.67;57.66;;
46393;Laerm;32099;53.588;10.176;2024-01-27T03:20:18;47.46;45.08;51.34;;
46393;Laerm;32099;53.588;10.176;2024-01-27T03:22:43;45.95;44.06;48.04;;
46393;Laerm;32099;53.588;10.176;2024-01-27T03:25:10;46.01;43.71;55.44;;
46393;Laerm;32099;53.588;10.176;2024-01-27T03:27:35;45.87;44.00;52.59;;
46393;Laerm;32099;53.588;10.176;2024-01-27T03:30:02;45.04;43.84;47.21;;
46393;Laerm;32099;53.588;10.176;2024-01-27T03:32:31;46.83;43.91;57.89;;
46393;Laerm;32099;53.588;10.176;2024-01-27T03:34:57;44.96;43.87;47.68;;
46393;Laerm;32099;53.588;10.176;2024-01-27T03:37:22;49.03;44.23;62.24;;
46393;Laerm;32099;53.588;10.176;2024-01-27T03:39:48;46.63;44.22;59.61;;
46393;Laerm;32099;53.588;10.176;2024-01-27T03:42:14;47.78;44.89;59.20;;
46393;Laerm;32099;53.588;10.176;2024-01-27T03:44:39;60.04;44.01;81.42;;
46393;Laerm;32099;53.588;10.176;2024-01-27T03:47:05;50.91;44.24;61.73;;
46393;Laerm;32099;53.588;10.176;2024-01-27T03:49:33;48.41;45.16;57.90;;
46393;Laerm;32099;53.588;10.176;2024-01-27T03:51:59;50.00;44.60;60.11;;
46393;Laerm;32099;53.588;10.176;2024-01-27T03:54:25;44.79;43.60;48.87;;
46393;Laerm;32099;53.588;10.176;2024-01-27T03:56:50;44.41;43.32;45.98;;
46393;Laerm;32099;53.588;10.176;2024-01-27T03:59:16;46.33;44.22;50.48;;
46393;Laerm;32099;53.588;10.176;2024-01-27T04:01:42;49.08;44.35;59.40;;
46393;Laerm;32099;53.588;10.176;2024-01-27T04:04:07;49.01;44.56;55.53;;
46393;Laerm;32099;53.588;10.176;2024-01-27T04:06:39;47.64;44.73;58.04;;
46393;Laerm;32099;53.588;10.176;2024-01-27T04:09:05;47.41;45.00;57.33;;
46393;Laerm;32099;53.588;10.176;2024-01-27T04:11:31;45.10;43.97;48.33;;
46393;Laerm;32099;53.588;10.176;2024-01-27T04:13:56;47.13;43.97;56.85;;
46393;Laerm;32099;53.588;10.176;2024-01-27T04:16:22;47.73;44.23;56.41;;
46393;Laerm;32099;53.588;10.176;2024-01-27T04:18:48;45.86;43.76;53.55;;
46393;Laerm;32099;53.588;10.176;2024-01-27T04:21:13;48.50;45.44;60.96;;
46393;Laerm;32099;53.588;10.176;2024-01-27T04:23:42;46.35;44.23;57.08;;
46393;Laerm;32099;53.588;10.176;2024-01-27T04:26:08;45.53;44.27;48.23;;
46393;Laerm;32099;53.588;10.176;2024-01-27T04:28:33;46.45;44.53;51.74;;
46393;Laerm;32099;53.588;10.176;2024-01-27T04:31:00;47.31;44.84;56.93;;
46393;Laerm;32099;53.588;10.176;2024-01-27T04:33:26;47.90;45.47;54.77;;
46393;Laerm;32099;53.588;10.176;2024-01-27T04:35:52;48.66;45.48;59.56;;
46393;Laerm;32099;53.588;10.176;2024-01-27T04:38:18;47.10;44.85;50.59;;
46393;Laerm;32099;53.588;10.176;2024-01-27T04:40:46;47.83;44.69;62.12;;
46393;Laerm;32099;53.588;10.176;2024-01-27T04:43:14;46.44;45.03;48.42;;
46393;Laerm;32099;53.588;10.176;2024-01-27T04:45:40;47.74;44.33;59.89;;
46393;Laerm;32099;53.588;10.176;2024-01-27T04:48:07;46.54;44.08;57.13;;
46393;Laerm;32099;53.588;10.176;2024-01-27T04:50:33;47.61;44.09;63.48;;
46393;Laerm;32099;53.588;10.176;2024-01-27T04:52:59;49.92;44.12;60.56;;
46393;Laerm;32099;53.588;10.176;2024-01-27T04:55:25;45.96;43.80;55.41;;
46393;Laerm;32099;53.588;10.176;2024-01-27T04:57:53;45.49;43.82;47.93;;
46393;Laerm;32099;53.588;10.176;2024-01-27T05:00:20;46.18;43.75;62.43;;
46393;Laerm;32099;53.588;10.176;2024-01-27T05:02:46;47.62;43.78;61.58;;
46393;Laerm;32099;53.588;10.176;2024-01-27T05:05:12;47.54;44.02;60.71;;
46393;Laerm;32099;53.588;10.176;2024-01-27T05:07:39;48.59;43.84;59.89;;
46393;Laerm;32099;53.588;10.176;2024-01-27T05:10:05;47.42;44.59;53.20;;
46393;Laerm;32099;53.588;10.176;2024-01-27T05:12:31;53.31;45.36;66.66;;
46393;Laerm;32099;53.588;10.176;2024-01-27T05:15:00;56.06;44.98;77.35;;
46393;Laerm;32099;53.588;10.176;2024-01-27T05:17:26;61.93;45.19;82.36;;
46393;Laerm;32099;53.588;10.176;2024-01-27T05:19:52;47.90;44.79;61.24;;
46393;Laerm;32099;53.588;10.176;2024-01-27T05:22:20;48.38;46.03;54.67;;
46393;Laerm;32099;53.588;10.176;2024-01-27T05:24:46;49.88;46.26;62.11;;
46393;Laerm;32099;53.588;10.176;2024-01-27T05:27:12;48.40;45.13;62.28;;
46393;Laerm;32099;53.588;10.176;2024-01-27T05:29:38;46.33;44.20;51.18;;
46393;Laerm;32099;53.588;10.176;2024-01-27T05:32:07;48.44;44.71;63.23;;
46393;Laerm;32099;53.588;10.176;2024-01-27T05:34:32;50.92;45.10;64.89;;
46393;Laerm;32099;53.588;10.176;2024-01-27T05:36:58;58.41;45.56;74.84;;
46393;Laerm;32099;53.588;10.176;2024-01-27T05:39:24;48.23;44.41;59.18;;
46393;Laerm;32099;53.588;10.176;2024-01-27T05:41:49;49.33;45.08;61.03;;
46393;Laerm;32099;53.588;10.176;2024-01-27T05:44:15;49.54;45.18;69.15;;
46393;Laerm;32099;53.588;10.176;2024-01-27T05:46:41;50.48;44.98;73.63;;
46393;Laerm;32099;53.588;10.176;2024-01-27T05:49:10;57.94;44.84;76.88;;
46393;Laerm;32099;53.588;10.176;2024-01-27T05:51:36;61.16;45.00;75.10;;
46393;Laerm;32099;53.588;10.176;2024-01-27T05:54:02;47.72;44.91;61.43;;
46393;Laerm;32099;53.588;10.176;2024-01-27T05:56:28;47.57;45.00;58.39;;
46393;Laerm;32099;53.588;10.176;2024-01-27T05:58:53;59.49;44.74;79.22;;
46393;Laerm;32099;53.588;10.176;2024-01-27T06:01:19;50.46;45.35;65.55;;
46393;Laerm;32099;53.588;10.176;2024-01-27T06:03:45;47.21;44.97;53.86;;
46393;Laerm;32099;53.588;10.176;2024-01-27T06:06:14;51.91;44.71;66.13;;
46393;Laerm;32099;53.588;10.176;2024-01-27T06:08:40;54.56;45.09;66.46;;
46393;Laerm;32099;53.588;10.176;2024-01-27T06:11:06;49.91;44.95;66.05;;
46393;Laerm;32099;53.588;10.176;2024-01-27T06:13:32;54.52;45.15;70.66;;
46393;Laerm;32099;53.588;10.176;2024-01-27T06:15:57;50.19;45.31;62.56;;
46393;Laerm;32099;53.588;10.176;2024-01-27T06:18:23;61.06;45.87;80.68;;
46393;Laerm;32099;53.588;10.176;2024-01-27T06:20:49;51.63;45.50;74.01;;
46393;Laerm;32099;53.588;10.176;2024-01-27T06:23:17;50.32;45.53;63.55;;
46393;Laerm;32099;53.588;10.176;2024-01-27T06:25:43;62.96;45.20;80.63;;
46393;Laerm;32099;53.588;10.176;2024-01-27T06:28:08;49.33;45.44;60.61;;
46393;Laerm;32099;53.588;10.176;2024-01-27T06:30:34;47.86;45.78;53.91;;
46393;Laerm;32099;53.588;10.176;2024-01-27T06:33:00;50.21;45.90;64.68;;
46393;Laerm;32099;53.588;10.176;2024-01-27T06:35:26;51.43;46.03;64.53;;
46393;Laerm;32099;53.588;10.176;2024-01-27T06:37:52;49.58;45.59;62.81;;
46393;Laerm;32099;53.588;10.176;2024-01-27T06:40:21;50.75;46.79;65.23;;
46393;Laerm;32099;53.588;10.176;2024-01-27T06:42:47;64.16;48.31;83.32;;
46393;Laerm;32099;53.588;10.176;2024-01-27T06:45:12;52.88;46.36;69.19;;
46393;Laerm;32099;53.588;10.176;2024-01-27T06:47:38;54.39;46.13;69.73;;
46393;Laerm;32099;53.588;10.176;2024-01-27T06:50:06;50.73;46.27;60.44;;
46393;Laerm;32099;53.588;10.176;2024-01-27T06:52:32;59.63;46.06;79.26;;
46393;Laerm;32099;53.588;10.176;2024-01-27T06:54:58;56.01;47.59;65.82;;
46393;Laerm;32099;53.588;10.176;2024-01-27T06:57:26;50.99;46.04;61.11;;
46393;Laerm;32099;53.588;10.176;2024-01-27T06:59:52;53.53;45.24;70.19;;
46393;Laerm;32099;53.588;10.176;2024-01-27T07:02:19;47.99;45.91;55.48;;
46393;Laerm;32099;53.588;10.176;2024-01-27T07:04:44;59.82;46.30;79.07;;
46393;Laerm;32099;53.588;10.176;2024-01-27T07:07:10;60.95;46.23;79.63;;
46393;Laerm;32099;53.588;10.176;2024-01-27T07:09:36;54.78;46.22;68.36;;
46393;Laerm;32099;53.588;10.176;2024-01-27T07:12:02;61.83;46.27;81.02;;
46393;Laerm;32099;53.588;10.176;2024-01-27T07:14:30;51.64;46.56;64.44;;
46393;Laerm;32099;53.588;10.176;2024-01-27T07:16:56;51.73;47.11;60.50;;
46393;Laerm;32099;53.588;10.176;2024-01-27T07:19:21;59.67;46.91;77.87;;
46393;Laerm;32099;53.588;10.176;2024-01-27T07:21:47;57.06;47.48;74.66;;
46393;Laerm;32099;53.588;10.176;2024-01-27T07:24:13;64.74;48.56;81.28;;
46393;Laerm;32099;53.588;10.176;2024-01-27T07:26:38;65.71;47.98;84.80;;
46393;Laerm;32099;53.588;10.176;2024-01-27T07:29:04;52.13;47.44;64.35;;
46393;Laerm;32099;53.588;10.176;2024-01-27T07:31:32;61.06;47.55;80.71;;
46393;Laerm;32099;53.588;10.176;2024-01-27T07:33:58;49.87;47.48;61.83;;
46393;Laerm;32099;53.588;10.176;2024-01-27T07:36:24;61.75;47.21;78.43;;
46393;Laerm;32099;53.588;10.176;2024-01-27T07:38:49;53.92;48.28;65.49;;
46393;Laerm;32099;53.588;10.176;2024-01-27T07:41:18;50.96;47.45;60.23;;
46393;Laerm;32099;53.588;10.176;2024-01-27T07:43:43;57.47;48.62;74.51;;
46393;Laerm;32099;53.588;10.176;2024-01-27T07:46:09;62.56;48.63;80.84;;
46393;Laerm;32099;53.588;10.176;2024-01-27T07:48:37;56.53;48.14;70.42;;
46393;Laerm;32099;53.588;10.176;2024-01-27T07:51:03;61.62;48.45;85.24;;
46393;Laerm;32099;53.588;10.176;2024-01-27T07:53:29;52.11;48.59;68.30;;
46393;Laerm;32099;53.588;10.176;2024-01-27T07:55:55;61.08;48.20;81.79;;
46393;Laerm;32099;53.588;10.176;2024-01-27T07:58:20;64.04;48.67;84.20;;
46393;Laerm;32099;53.588;10.176;2024-01-27T08:00:46;58.25;48.53;73.28;;
46393;Laerm;32099;53.588;10.176;2024-01-27T08:03:12;62.15;49.06;77.98;;
46393;Laerm;32099;53.588;10.176;2024-01-27T08:05:40;60.83;48.49;79.01;;
46393;Laerm;32099;53.588;10.176;2024-01-27T08:08:06;58.41;49.01;75.34;;
46393;Laerm;32099;53.588;10.176;2024-01-27T08:10:32;63.09;49.50;83.62;;
46393;Laerm;32099;53.588;10.176;2024-01-27T08:12:57;52.99;48.58;65.82;;
46393;Laerm;32099;53.588;10.176;2024-01-27T08:15:23;52.49;49.25;62.06;;
46393;Laerm;32099;53.588;10.176;2024-01-27T08:17:49;60.09;49.09;80.46;;
46393;Laerm;32099;53.588;10.176;2024-01-27T08:20:15;53.28;49.25;59.26;;
46393;Laerm;32099;53.588;10.176;2024-01-27T08:22:43;53.39;49.72;65.24;;
46393;Laerm;32099;53.588;10.176;2024-01-27T08:25:09;61.75;49.47;81.03;;
46393;Laerm;32099;53.588;10.176;2024-01-27T08:27:34;64.83;49.84;85.93;;
46393;Laerm;32099;53.588;10.176;2024-01-27T08:30:00;52.88;49.09;69.44;;
46393;Laerm;32099;53.588;10.176;2024-01-27T08:32:26;61.91;49.58;82.12;;
46393;Laerm;32099;53.588;10.176;2024-01-27T08:34:51;64.29;49.53;82.80;;
46393;Laerm;32099;53.588;10.176;2024-01-27T08:37:18;53.03;50.53;60.17;;
46393;Laerm;32099;53.588;10.176;2024-01-27T08:39:47;60.88;50.30;79.87;;
46393;Laerm;32099;53.588;10.176;2024-01-27T08:42:13;65.82;50.45;80.15;;
46393;Laerm;32099;53.588;10.176;2024-01-27T08:44:38;60.24;50.11;79.44;;
46393;Laerm;32099;53.588;10.176;2024-01-27T08:47:05;56.24;50.54;68.81;;
46393;Laerm;32099;53.588;10.176;2024-01-27T08:49:31;63.83;49.83;81.75;;
46393;Laerm;32099;53.588;10.176;2024-01-27T08:51:56;65.36;49.63;82.73;;
46393;Laerm;32099;53.588;10.176;2024-01-27T08:54:24;53.16;49.78;65.42;;
46393;Laerm;32099;53.588;10.176;2024-01-27T08:56:52;55.76;49.97;83.61;;
46393;Laerm;32099;53.588;10.176;2024-01-27T08:59:18;69.97;50.10;85.23;;
46393;Laerm;32099;53.588;10.176;2024-01-27T09:01:44;64.12;50.14;81.86;;
46393;Laerm;32099;53.588;10.176;2024-01-27T09:04:09;64.43;49.03;79.76;;
46393;Laerm;32099;53.588;10.176;2024-01-27T09:06:35;64.34;49.18;89.50;;
46393;Laerm;32099;53.588;10.176;2024-01-27T09:09:01;63.61;50.43;82.52;;
46393;Laerm;32099;53.588;10.176;2024-01-27T09:11:27;52.76;49.25;59.87;;
46393;Laerm;32099;53.588;10.176;2024-01-27T09:13:55;57.28;49.27;74.46;;
46393;Laerm;32099;53.588;10.176;2024-01-27T09:16:21;60.33;49.08;80.96;;
46393;Laerm;32099;53.588;10.176;2024-01-27T09:18:46;60.55;49.94;78.18;;
46393;Laerm;32099;53.588;10.176;2024-01-27T09:21:12;65.35;49.13;82.31;;
46393;Laerm;32099;53.588;10.176;2024-01-27T09:23:38;53.69;49.88;64.29;;
46393;Laerm;32099;53.588;10.176;2024-01-27T09:26:05;58.57;50.03;74.78;;
46393;Laerm;32099;53.588;10.176;2024-01-27T09:28:30;63.13;49.66;78.91;;
46393;Laerm;32099;53.588;10.176;2024-01-27T09:30:59;61.64;49.17;80.48;;
46393;Laerm;32099;53.588;10.176;2024-01-27T09:33:25;60.27;48.62;77.81;;
46393;Laerm;32099;53.588;10.176;2024-01-27T09:35:50;62.24;49.87;78.17;;
46393;Laerm;32099;53.588;10.176;2024-01-27T09:38:16;62.15;49.96;81.05;;
46393;Laerm;32099;53.588;10.176;2024-01-27T09:40:42;61.21;49.60;77.41;;
46393;Laerm;32099;53.588;10.176;2024-01-27T09:43:11;52.90;48.96;62.34;;
46393;Laerm;32099;53.588;10.176;2024-01-27T09:45:38;57.85;48.83;76.06;;
46393;Laerm;32099;53.588;10.176;2024-01-27T09:48:08;60.49;49.51;80.04;;
46393;Laerm;32099;53.588;10.176;2024-01-27T09:50:36;58.33;49.79;77.16;;
46393;Laerm;32099;53.588;10.176;2024-01-27T09:53:02;62.06;48.50;77.95;;
46393;Laerm;32099;53.588;10.176;2024-01-27T09:55:29;60.55;48.92;76.58;;
46393;Laerm;32099;53.588;10.176;2024-01-27T09:57:55;58.36;48.71;75.78;;
46393;Laerm;32099;53.588;10.176;2024-01-27T10:00:21;61.88;48.71;81.23;;
46393;Laerm;32099;53.588;10.176;2024-01-27T10:02:48;58.26;49.33;77.29;;
46393;Laerm;32099;53.588;10.176;2024-01-27T10:05:18;54.18;48.86;70.95;;
46393;Laerm;32099;53.588;10.176;2024-01-27T10:07:44;59.38;49.12;77.34;;
46393;Laerm;32099;53.588;10.176;2024-01-27T10:10:10;53.02;48.64;68.43;;
46393;Laerm;32099;53.588;10.176;2024-01-27T10:12:40;59.20;48.78;74.57;;
46393;Laerm;32099;53.588;10.176;2024-01-27T10:15:06;62.42;50.59;80.30;;
46393;Laerm;32099;53.588;10.176;2024-01-27T10:17:32;64.14;48.29;81.27;;
46393;Laerm;32099;53.588;10.176;2024-01-27T10:20:01;58.61;48.46;74.82;;
46393;Laerm;32099;53.588;10.176;2024-01-27T10:22:37;63.06;48.77;78.44;;
46393;Laerm;32099;53.588;10.176;2024-01-27T10:25:03;61.60;48.15;76.95;;
46393;Laerm;32099;53.588;10.176;2024-01-27T10:27:29;61.64;48.72;75.43;;
46393;Laerm;32099;53.588;10.176;2024-01-27T10:29:54;51.56;47.76;61.76;;
46393;Laerm;32099;53.588;10.176;2024-01-27T10:32:20;62.54;47.84;80.91;;
46393;Laerm;32099;53.588;10.176;2024-01-27T10:34:46;59.54;47.89;74.60;;
46393;Laerm;32099;53.588;10.176;2024-01-27T10:37:12;51.91;48.23;63.50;;
46393;Laerm;32099;53.588;10.176;2024-01-27T10:39:41;59.54;48.29;74.76;;
46393;Laerm;32099;53.588;10.176;2024-01-27T10:42:08;59.11;47.66;74.46;;
46393;Laerm;32099;53.588;10.176;2024-01-27T10:44:36;54.55;47.44;73.37;;
46393;Laerm;32099;53.588;10.176;2024-01-27T10:47:06;61.65;46.97;77.70;;
46393;Laerm;32099;53.588;10.176;2024-01-27T10:49:37;63.48;47.42;81.12;;
46393;Laerm;32099;53.588;10.176;2024-01-27T10:52:11;62.07;47.57;78.62;;
46393;Laerm;32099;53.588;10.176;2024-01-27T10:54:43;63.80;47.68;80.37;;
46393;Laerm;32099;53.588;10.176;2024-01-27T10:57:11;53.96;48.28;70.69;;
46393;Laerm;32099;53.588;10.176;2024-01-27T10:59:39;64.21;48.39;77.18;;
46393;Laerm;32099;53.588;10.176;2024-01-27T11:02:11;59.87;47.62;75.73;;
46393;Laerm;32099;53.588;10.176;2024-01-27T11:04:38;66.29;49.12;85.37;;
46393;Laerm;32099;53.588;10.176;2024-01-27T11:07:05;55.83;48.57;66.35;;
46393;Laerm;32099;53.588;10.176;2024-01-27T11:09:32;54.41;47.30;76.82;;
46393;Laerm;32099;53.588;10.176;2024-01-27T11:12:01;61.98;47.23;79.92;;
46393;Laerm;32099;53.588;10.176;2024-01-27T11:14:27;53.73;47.85;70.49;;
46393;Laerm;32099;53.588;10.176;2024-01-27T11:16:57;62.26;47.76;79.28;;
46393;Laerm;32099;53.588;10.176;2024-01-27T11:19:23;63.34;47.62;81.76;;
46393;Laerm;32099;53.588;10.176;2024-01-27T11:21:59;55.41;47.57;72.48;;
46393;Laerm;32099;53.588;10.176;2024-01-27T11:24:25;58.45;49.44;73.77;;
46393;Laerm;32099;53.588;10.176;2024-01-27T11:27:02;55.42;47.25;72.32;;
46393;Laerm;32099;53.588;10.176;2024-01-27T11:29:28;51.16;47.34;69.47;;
46393;Laerm;32099;53.588;10.176;2024-01-27T11:31:54;57.49;47.06;76.53;;
46393;Laerm;32099;53.588;10.176;2024-01-27T11:34:20;61.43;47.70;75.44;;
46393;Laerm;32099;53.588;10.176;2024-01-27T11:36:46;52.23;47.20;65.21;;
46393;Laerm;32099;53.588;10.176;2024-01-27T11:39:25;62.34;47.50;78.35;;
46393;Laerm;32099;53.588;10.176;2024-01-27T11:41:51;60.32;47.57;76.29;;
46393;Laerm;32099;53.588;10.176;2024-01-27T11:44:19;66.49;49.05;79.84;;
46393;Laerm;32099;53.588;10.176;2024-01-27T11:46:45;61.11;47.15;79.75;;
46393;Laerm;32099;53.588;10.176;2024-01-27T11:49:14;60.47;46.68;74.58;;
46393;Laerm;32099;53.588;10.176;2024-01-27T11:51:40;52.27;46.77;70.36;;
46393;Laerm;32099;53.588;10.176;2024-01-27T11:54:06;51.32;47.28;59.43;;
46393;Laerm;32099;53.588;10.176;2024-01-27T11:56:31;62.98;48.26;80.65;;
46393;Laerm;32099;53.588;10.176;2024-01-27T11:58:57;59.97;46.27;75.97;;
46393;Laerm;32099;53.588;10.176;2024-01-27T12:01:26;50.82;47.12;64.98;;
46393;Laerm;32099;53.588;10.176;2024-01-27T12:03:51;61.30;47.36;75.32;;
46393;Laerm;32099;53.588;10.176;2024-01-27T12:06:17;59.59;46.93;78.88;;
46393;Laerm;32099;53.588;10.176;2024-01-27T12:08:43;61.96;46.59;77.21;;
46393;Laerm;32099;53.588;10.176;2024-01-27T12:11:08;60.02;46.82;79.04;;
46393;Laerm;32099;53.588;10.176;2024-01-27T12:13:34;60.42;47.27;74.88;;
46393;Laerm;32099;53.588;10.176;2024-01-27T12:16:00;54.83;46.36;72.74;;
46393;Laerm;32099;53.588;10.176;2024-01-27T12:18:28;62.18;46.40;79.42;;
46393;Laerm;32099;53.588;10.176;2024-01-27T12:20:55;62.54;46.66;78.14;;
46393;Laerm;32099;53.588;10.176;2024-01-27T12:23:20;61.66;47.16;78.48;;
46393;Laerm;32099;53.588;10.176;2024-01-27T12:25:52;59.54;47.31;79.24;;
46393;Laerm;32099;53.588;10.176;2024-01-27T12:28:18;58.56;46.67;76.95;;
46393;Laerm;32099;53.588;10.176;2024-01-27T12:30:44;55.05;45.88;72.98;;
46393;Laerm;32099;53.588;10.176;2024-01-27T12:33:12;56.64;47.07;82.65;;
46393;Laerm;32099;53.588;10.176;2024-01-27T12:35:40;54.36;45.77;71.56;;
46393;Laerm;32099;53.588;10.176;2024-01-27T12:38:06;56.65;46.52;72.22;;
46393;Laerm;32099;53.588;10.176;2024-01-27T12:40:32;49.81;46.57;61.50;;
46393;Laerm;32099;53.588;10.176;2024-01-27T12:42:57;61.56;45.82;76.42;;
46393;Laerm;32099;53.588;10.176;2024-01-27T12:45:23;58.46;45.88;72.76;;
46393;Laerm;32099;53.588;10.176;2024-01-27T12:47:49;57.52;45.26;74.14;;
46393;Laerm;32099;53.588;10.176;2024-01-27T12:50:15;57.12;46.08;73.98;;
46393;Laerm;32099;53.588;10.176;2024-01-27T12:52:43;58.88;47.93;74.05;;
46393;Laerm;32099;53.588;10.176;2024-01-27T12:55:09;56.17;46.70;73.36;;
46393;Laerm;32099;53.588;10.176;2024-01-27T12:57:34;59.67;45.16;73.38;;
46393;Laerm;32099;53.588;10.176;2024-01-27T13:00:00;56.70;45.40;74.53;;
46393;Laerm;32099;53.588;10.176;2024-01-27T13:02:26;59.28;47.32;77.08;;
46393;Laerm;32099;53.588;10.176;2024-01-27T13:04:52;63.55;46.55;82.97;;
46393;Laerm;32099;53.588;10.176;2024-01-27T13:07:18;59.00;46.26;72.61;;
46393;Laerm;32099;53.588;10.176;2024-01-27T13:09:48;54.39;45.43;74.37;;
46393;Laerm;32099;53.588;10.176;2024-01-27T13:12:13;56.67;45.79;72.05;;
46393;Laerm;32099;53.588;10.176;2024-01-27T13:14:39;54.84;45.61;71.56;;
46393;Laerm;32099;53.588;10.176;2024-01-27T13:17:05;51.01;45.68;67.42;;
46393;Laerm;32099;53.588;10.176;2024-01-27T13:19:30;48.70;45.80;58.29;;
46393;Laerm;32099;53.588;10.176;2024-01-27T13:21:56;54.73;45.13;72.17;;
46393;Laerm;32099;53.588;10.176;2024-01-27T13:24:22;52.88;44.83;71.72;;
46393;Laerm;32099;53.588;10.176;2024-01-27T13:26:50;59.92;46.53;78.40;;